x

Central Dixon Entrance Buoy (46145) Wave Buoy

7:00pm - Sun 28th Aug 2016 All times are PDT. -7 hours from GMT.

  • Sig Wave height 3.9ft
  • Peak Period 4s
  • Wind
    25mph, 29mph gusts
  • Sea Temp 55°f
  • Air Temp 55°f
  • Sea Pressure 1006.7mb
  • Central Dixon Entrance Buoy
  • Central Dixon Entrance Buoy

More Historic Weather Station data

Upgrade to MSW Pro to gain access to the past 30 days of data for over 8000 Wavebouys and Weather Stations around the globe.

Join Pro

Comparision Forecast

View Surf forecast
   
Sun 08/28 7:00pm 4ft 4s 25 29 mph 1006.7mb 55f 55f
6:00pm 3.5ft 4s 27 31 mph 1007mb 55f 55f
5:00pm 3.5ft 4s 27 31 mph 1007.3mb 56f 55f
4:00pm 2.5ft 4s 27 31 mph 1007.5mb 56f 56f
3:00pm 2.5ft 4s 18 22 mph 1007.9mb 56f 56f
2:00pm 3ft 4s 16 18 mph 1008.1mb 56f 56f
1:00pm 3.5ft 4s 20 22 mph 1008.4mb 56f 55f
12:00pm 3.5ft 4s 18 25 mph 1008.8mb 56f 56f
11:00am 3.5ft 5s 20 25 mph 1008.7mb 56f 56f
10:00am 3.5ft 5s 22 27 mph 1008.7mb 56f 56f
9:00am 3ft 4s 20 25 mph 1009mb 56f 57f
8:00am 2.5ft 4s 20 25 mph 1009.3mb 56f 57f
7:00am 3ft 7s 18 22 mph 1009.4mb 56f 56f
6:00am 2.5ft 7s 18 20 mph 1009.5mb 56f 56f
5:00am 2.5ft 7s 16 20 mph 1009.9mb 56f 56f
4:00am 2.5ft 7s 13 16 mph 1010mb 56f 56f
3:00am 2.5ft 8s 11 13 mph 1010.3mb 56f 56f
2:00am 2.5ft 7s 13 16 mph 1010.5mb 56f 56f
1:00am 3ft 8s 13 16 mph 1010.4mb 56f 56f
12:00am 3.5ft 8s 11 13 mph 1010.5mb 56f 57f
Sat 08/27 11:00pm 3.5ft 8s 9 11 mph 1010.3mb 57f 57f
10:00pm 4ft 7s 7 9 mph 1010.5mb 57f 56f
9:00pm 4ft 7s 7 9 mph 1010.8mb 57f 56f
8:00pm 4.5ft 8s 7 9 mph 1010.7mb 57f 56f
7:00pm 4.5ft 8s 4
mph
1010.7mb 57f 56f
6:00pm 4ft 8s 7
mph
1010.5mb 57f 56f
5:00pm 4ft 8s 4 7 mph 1010.7mb 57f 56f
4:00pm 4.5ft 8s 7 9 mph 1010.9mb 56f 56f
3:00pm 4.5ft 8s 7 9 mph 1011mb 56f 56f
2:00pm 5ft 8s 9 11 mph 1011mb 56f 55f
1:00pm 5.5ft 8s 11 13 mph 1010.9mb 56f 55f
12:00pm 5ft 8s 11 13 mph 1010.8mb 56f 55f
11:00am 6ft 8s 13 16 mph 1010.5mb 56f 54f
10:00am 6ft 8s 13 16 mph 1010.5mb 56f 54f
9:00am 6.5ft 8s 13 18 mph 1010.6mb 56f 54f
8:00am 6.5ft 8s 16 20 mph 1010.8mb 56f 55f
7:00am 7ft 8s 20 22 mph 1011mb 56f 55f
6:00am 7ft 8s 20 25 mph 1011.1mb 56f 56f
5:00am 7ft 8s 22 27 mph 1011.3mb 56f 56f
4:00am 7ft 8s 20 25 mph 1011.7mb 56f 56f
3:00am 6.5ft 8s 25 29 mph 1011.6mb 56f 57f
2:00am 6ft 8s 16 18 mph 1012.6mb 56f 57f
1:00am 5.5ft 8s 18 22 mph 1012.6mb 57f 57f
12:00am 6ft 8s 20 25 mph 1012.4mb 56f 56f
Fri 08/26 11:00pm 6.5ft 8s 18 22 mph 1012.8mb 55f 56f
10:00pm 6ft 8s 20 25 mph 1013.1mb 55f 56f
9:00pm 6.5ft 8s 16 18 mph 1013.7mb 55f 56f
8:00pm 5.5ft 7s 20 25 mph 1013.4mb 54f 56f
7:00pm 6ft 7s 27 31 mph 1013.2mb 54f 56f
6:00pm 5.5ft 7s 22 25 mph 1014.1mb 55f 56f
5:00pm 5ft 6s 20 25 mph 1014.4mb 55f 56f
4:00pm 4.5ft 6s 20 27 mph 1015.3mb 55f 56f
3:00pm 4.5ft 6s 18 20 mph 1015.9mb 54f 56f
2:00pm 4ft 7s 22 27 mph 1015.7mb 54f 56f
1:00pm 3.5ft 6s 20 22 mph 1016.2mb 53f 56f
12:00pm 3.5ft 8s 16 18 mph 1017.1mb 53f 56f
11:00am 3.5ft 8s 20 25 mph 1017.1mb 54f 56f
10:00am 3.5ft 8s 16 18 mph 1018.3mb 54f 56f
9:00am 3.5ft 8s 16 18 mph 1019.2mb 54f 55f
8:00am 3.5ft 7s 18 20 mph 1019.6mb 54f 55f
7:00am 3.5ft 8s 18
mph
1020.3mb 54f 56f
6:00am 4ft 6s 7 13 mph 1021.2mb 55f 55f
5:00am 4.5ft 6s 20 22 mph 1021.7mb 55f 56f
4:00am 5ft 6s 18 20 mph 1022.2mb 55f 55f
3:00am 5.5ft 6s 18 22 mph 1022.7mb 55f 55f
2:00am 5ft 7s 20 25 mph 1023.1mb 55f 55f
1:00am 5ft 7s 18 22 mph 1023.9mb 55f 55f
12:00am 5ft 6s 18 22 mph 1024.5mb 55f 55f
Thu 08/25 11:00pm 5.5ft 7s 22 27 mph 1024.8mb 54f 54f
10:00pm  -   -  22
mph
1025mb 54f 55f
9:00pm 6ft 6s 27 34 mph 1024.9mb 54f 55f
8:00pm 7ft 6s 31 38 mph 1024.5mb 54f 55f
7:00pm 7ft 6s 29 34 mph 1024.7mb 54f 55f
6:00pm 7ft 6s 31 40 mph 1024.8mb 55f 55f
5:00pm 7ft 6s 27 31 mph 1025.8mb 55f 55f
4:00pm 7ft 7s 27 31 mph 1026.4mb 55f 55f
3:00pm 6ft 8s 25 29 mph 1027.1mb 55f 55f
2:00pm  -   -  25
mph
1027.2mb - 55f
1:00pm  -   -  25
mph
1027.5mb - 55f
12:00pm 5.5ft 7s 27 31 mph 1027.9mb 55f 55f
9:00am 5.5ft 7s 25 29 mph 1029.1mb 54f 55f
8:00am 6ft 6s 25 31 mph 1029.4mb 54f 53f
7:00am 6.5ft 5s 27 31 mph 1029.4mb 54f 53f
6:00am 6ft 6s 27 36 mph 1029.3mb 54f 53f
5:00am 6ft 6s 25 29 mph 1029.8mb 54f 53f
4:00am 6ft 5s 27 34 mph 1029.8mb 54f 54f